weather.gov     
National Weather Service

Terminal Aerodrome Forecast
NWS Homepage
This page is being discontinued on March 12, 2014.
The same data is available at this site. Please update your bookmarks.
Thank you, and we apologize for the inconvenience.
Please send an email to SR-SRH.Webmaster@noaa.gov with any concerns.


Current Version
Previous Version:    01  02  03  04  05  06  07  08  09  10  11  12  13  14  15  16  17  18  19  20  21  22  23  24  25  26  27  28  29  
[Printable]
886
FTUS43 KDTX 310520
TAFDET
TAF
KDET 310520Z 3106/0106 21005KT P6SM OVC050
     FM311200 23005KT 4SM -SHRA BR OVC025
     FM311600 28007KT 4SM BR OVC015
     FM311800 32015KT 2SM SHRA BR OVC008
     FM312100 36020G30KT 4SM SHRA OVC008
     FM010100 36015G25KT 4SM -SHRASN OVC015=




886
FTUS43 KDTX 310520
TAFDET
TAF
KDET 310520Z 3106/0106 21005KT P6SM OVC050
     FM311200 23005KT 4SM -SHRA BR OVC025
     FM311600 28007KT 4SM BR OVC015
     FM311800 32015KT 2SM SHRA BR OVC008
     FM312100 36020G30KT 4SM SHRA OVC008
     FM010100 36015G25KT 4SM -SHRASN OVC015=


U.S. Dept. of Commerce
NOAA National Weather Service
1325 East West Highway
Silver Spring, MD 20910
E-mail: w-nws.webmaster@noaa.gov
Page last modified: May 16, 2007
NATIONAL WEATHER SERVICE: for Safety, for Work, for Fun - FOR LIFE